Time;durP1;ratioP1;P1;durP2;ratioP2;P2;SDS_P1;SDS_P2;PMS_P1;PMS_P2;Temp;Humidity;BMP_temperature;BMP_pressure;BME280_temperature;BME280_humidity;BME280_pressure;Samples;Min_cycle;Max_cycle;Signal;HPM_P1;HPM_P2
2023/05/16 00:00:16;;;;;;;10.25;8.45;;;13.00;99.90;;;;;;5024647;28;20698;-76
2023/05/16 00:02:43;;;;;;;10.63;8.13;;;13.00;99.90;;;;;;5034626;28;20206;-76
2023/05/16 00:05:13;;;;;;;8.85;7.38;;;12.90;99.90;;;;;;5032879;28;20215;-76
2023/05/16 00:07:46;;;;;;;10.13;8.43;;;12.90;99.90;;;;;;5038037;28;20245;-76
2023/05/16 00:10:13;;;;;;;8.93;7.47;;;13.00;99.90;;;;;;5033621;28;20213;-76
2023/05/16 00:12:43;;;;;;;8.38;7.40;;;12.90;99.90;;;;;;5023743;28;20203;-76
2023/05/16 00:15:13;;;;;;;9.05;7.20;;;12.80;99.90;;;;;;5030431;28;20206;-76
2023/05/16 00:17:45;;;;;;;9.30;6.50;;;12.80;99.90;;;;;;5035242;28;20222;-76
2023/05/16 00:20:16;;;;;;;7.60;6.35;;;12.60;99.90;;;;;;5031367;28;20211;-76
2023/05/16 00:22:45;;;;;;;7.90;5.85;;;12.80;99.90;;;;;;5031801;28;20203;-76
2023/05/16 00:25:12;;;;;;;7.93;6.00;;;12.60;99.90;;;;;;5031695;28;20223;-76
2023/05/16 00:27:40;;;;;;;5.82;5.15;;;12.50;99.90;;;;;;5038156;28;20218;-76
2023/05/16 00:30:08;;;;;;;6.93;5.45;;;12.60;99.90;;;;;;5038327;28;20199;-76
2023/05/16 00:32:36;;;;;;;7.50;6.30;;;12.70;99.90;;;;;;5038293;28;20198;-76
2023/05/16 00:35:04;;;;;;;6.75;5.15;;;12.70;99.90;;;;;;5069813;28;20195;-76
2023/05/16 00:37:31;;;;;;;6.20;4.97;;;12.60;99.90;;;;;;5032545;28;20214;-76
2023/05/16 00:40:03;;;;;;;6.53;4.85;;;12.60;99.90;;;;;;5033182;28;20203;-76
2023/05/16 00:42:31;;;;;;;5.63;4.68;;;12.60;99.90;;;;;;5036157;28;20202;-76
2023/05/16 00:44:58;;;;;;;5.43;4.63;;;12.60;99.90;;;;;;5074198;28;20696;-76
2023/05/16 00:47:26;;;;;;;6.35;4.97;;;12.60;99.90;;;;;;5058803;28;20218;-76
2023/05/16 00:49:53;;;;;;;5.82;4.70;;;12.40;99.90;;;;;;5032293;28;20206;-76
2023/05/16 00:52:22;;;;;;;5.03;4.53;;;12.60;99.90;;;;;;5025910;28;20194;-76
2023/05/16 00:54:50;;;;;;;5.32;4.40;;;12.70;99.90;;;;;;5068867;28;20202;-76
2023/05/16 00:57:19;;;;;;;5.60;4.78;;;12.70;99.90;;;;;;5068714;28;20218;-76
2023/05/16 00:59:47;;;;;;;5.90;5.00;;;12.80;99.90;;;;;;5004690;23;20225;-76
2023/05/16 01:02:15;;;;;;;7.00;4.60;;;12.70;99.90;;;;;;4982574;28;20544;-76
2023/05/16 01:04:43;;;;;;;4.72;3.97;;;12.70;99.90;;;;;;4963159;28;20213;-76
2023/05/16 01:07:11;;;;;;;4.70;3.53;;;12.60;99.90;;;;;;4966304;28;20204;-76
2023/05/16 01:09:39;;;;;;;3.28;2.72;;;12.30;99.90;;;;;;4951685;28;20691;-76
2023/05/16 01:12:14;;;;;;;4.45;2.70;;;12.10;99.90;;;;;;4981859;28;20680;-76
2023/05/16 01:14:50;;;;;;;3.70;3.40;;;12.00;99.90;;;;;;4951073;28;20200;-76
2023/05/16 01:17:27;;;;;;;4.22;3.00;;;11.90;99.90;;;;;;4951144;28;20197;-76
2023/05/16 01:20:07;;;;;;;3.72;3.40;;;11.90;99.90;;;;;;4985371;28;20617;-76
2023/05/16 01:22:46;;;;;;;4.40;4.00;;;12.00;99.90;;;;;;4973083;28;20546;-76
2023/05/16 01:25:26;;;;;;;4.55;4.10;;;12.00;99.90;;;;;;4953559;28;20679;-76
2023/05/16 01:27:56;;;;;;;4.22;3.80;;;12.00;99.90;;;;;;4984981;28;20202;-76
2023/05/16 01:30:24;;;;;;;3.80;3.20;;;11.90;99.90;;;;;;4967359;28;20225;-76
2023/05/16 01:32:51;;;;;;;3.88;2.58;;;11.70;99.90;;;;;;4983380;28;20214;-76
2023/05/16 01:35:19;;;;;;;2.83;2.08;;;11.50;99.90;;;;;;4947030;28;20194;-76
2023/05/16 01:37:57;;;;;;;4.15;2.65;;;11.50;99.90;;;;;;4978610;28;20210;-76
2023/05/16 01:40:33;;;;;;;4.65;2.22;;;11.50;99.90;;;;;;4978413;28;20221;-76
2023/05/16 01:43:08;;;;;;;4.22;2.20;;;11.50;99.90;;;;;;4951069;28;20209;-76
2023/05/16 01:45:40;;;;;;;5.20;2.60;;;11.40;99.90;;;;;;4963292;28;20228;-76
2023/05/16 01:48:10;;;;;;;4.63;1.92;;;11.20;99.90;;;;;;4966802;28;20209;-76
2023/05/16 01:50:43;;;;;;;7.25;2.50;;;11.20;99.90;;;;;;4949230;28;20232;-76
2023/05/16 01:53:15;;;;;;;6.13;2.63;;;11.00;99.90;;;;;;4950677;28;20194;-76
2023/05/16 01:55:45;;;;;;;5.43;2.30;;;11.00;99.90;;;;;;4947439;28;20559;-76
2023/05/16 01:58:17;;;;;;;7.07;2.20;;;11.20;99.90;;;;;;4967215;28;20217;-76
2023/05/16 02:00:44;;;;;;;5.95;2.45;;;11.20;99.90;;;;;;4958803;28;20233;-76
2023/05/16 02:03:12;;;;;;;5.25;2.25;;;11.20;99.90;;;;;;4968882;28;20217;-76
2023/05/16 02:05:39;;;;;;;4.75;2.38;;;11.30;99.90;;;;;;4950510;28;20217;-76
2023/05/16 02:08:07;;;;;;;4.05;2.10;;;11.30;99.90;;;;;;4949009;28;20197;-76
2023/05/16 02:10:34;;;;;;;5.03;2.20;;;11.40;99.90;;;;;;4958904;28;20221;-76
2023/05/16 02:13:02;;;;;;;4.78;2.17;;;11.30;99.90;;;;;;4943993;28;20197;-76
2023/05/16 02:15:31;;;;;;;6.82;2.42;;;11.50;99.90;;;;;;4950501;28;20197;-76
2023/05/16 02:17:59;;;;;;;5.63;2.40;;;11.50;99.90;;;;;;4960683;28;20683;-76
2023/05/16 02:20:27;;;;;;;6.55;2.40;;;11.50;99.90;;;;;;4950074;28;20225;-76
2023/05/16 02:22:54;;;;;;;8.55;2.45;;;11.60;99.90;;;;;;4950830;28;20201;-76
2023/05/16 02:25:22;;;;;;;6.03;2.42;;;11.80;99.90;;;;;;4948461;28;20202;-76
2023/05/16 02:27:49;;;;;;;8.10;2.78;;;11.90;99.90;;;;;;4950747;28;20213;-76
2023/05/16 02:30:17;;;;;;;6.25;2.78;;;11.80;99.90;;;;;;4983781;28;20571;-76
2023/05/16 02:32:47;;;;;;;9.52;2.90;;;11.80;99.90;;;;;;4957324;28;20567;-76
2023/05/16 02:35:15;;;;;;;7.60;2.60;;;11.70;99.90;;;;;;4961664;28;20194;-76
2023/05/16 02:37:44;;;;;;;7.82;2.42;;;11.60;99.90;;;;;;4954049;28;20194;-76
2023/05/16 02:40:13;;;;;;;5.00;2.47;;;11.60;99.90;;;;;;4960508;28;20217;-76
2023/05/16 02:42:40;;;;;;;10.38;3.25;;;11.80;99.90;;;;;;4952062;28;20565;-76
2023/05/16 02:45:08;;;;;;;6.28;2.40;;;11.70;99.90;;;;;;4950518;28;20194;-76
2023/05/16 02:47:36;;;;;;;9.18;2.90;;;11.70;99.90;;;;;;4967703;28;21096;-76
2023/05/16 02:50:05;;;;;;;9.43;3.05;;;11.80;99.90;;;;;;4968378;28;20217;-76
2023/05/16 02:52:35;;;;;;;5.75;2.67;;;11.70;99.90;;;;;;4954522;28;20189;-76
2023/05/16 02:55:02;;;;;;;11.15;3.22;;;11.40;99.90;;;;;;4968797;28;20228;-76
2023/05/16 02:57:29;;;;;;;8.68;3.42;;;11.30;99.90;;;;;;4955023;28;20198;-76
2023/05/16 02:59:57;;;;;;;5.32;2.55;;;11.40;99.90;;;;;;4951499;28;20233;-76
2023/05/16 03:02:25;;;;;;;7.68;2.78;;;11.40;99.90;;;;;;4953030;28;20212;-76
2023/05/16 03:04:52;;;;;;;9.82;3.33;;;11.50;99.90;;;;;;4955644;28;20190;-76
2023/05/16 03:07:21;;;;;;;7.18;3.45;;;11.40;99.90;;;;;;4982615;28;20225;-76
2023/05/16 03:09:49;;;;;;;9.32;3.28;;;11.30;99.90;;;;;;4982391;28;20228;-76
2023/05/16 03:12:16;;;;;;;9.35;2.88;;;11.30;99.90;;;;;;4967849;28;20209;-76
2023/05/16 03:14:44;;;;;;;7.93;3.50;;;11.20;99.90;;;;;;4956195;28;20193;-76
2023/05/16 03:17:11;;;;;;;9.68;3.42;;;11.40;99.90;;;;;;4955965;28;20194;-77
2023/05/16 03:19:38;;;;;;;12.63;4.25;;;11.40;99.90;;;;;;4951042;28;20226;-76
2023/05/16 03:22:06;;;;;;;8.52;3.70;;;11.40;99.90;;;;;;4966515;28;20213;-76
2023/05/16 03:24:35;;;;;;;8.35;3.42;;;11.40;99.90;;;;;;4953289;28;20206;-76
2023/05/16 03:27:04;;;;;;;10.27;3.53;;;11.50;99.90;;;;;;4965751;28;20206;-76
2023/05/16 03:29:31;;;;;;;8.43;3.40;;;11.40;99.90;;;;;;4948338;28;20234;-76
2023/05/16 03:31:59;;;;;;;11.25;3.17;;;11.40;99.90;;;;;;4969422;28;20217;-76
2023/05/16 03:34:27;;;;;;;9.10;3.42;;;11.00;99.90;;;;;;4951788;28;20201;-76
2023/05/16 03:36:54;;;;;;;8.48;2.90;;;11.00;99.90;;;;;;4967658;28;20217;-76
2023/05/16 03:39:22;;;;;;;10.90;2.92;;;11.00;99.90;;;;;;4950979;28;20221;-76
2023/05/16 03:41:54;;;;;;;6.90;2.90;;;10.90;99.90;;;;;;4954000;28;20190;-76
2023/05/16 03:44:22;;;;;;;8.25;2.88;;;10.80;99.90;;;;;;4957174;28;20206;-76
2023/05/16 03:46:51;;;;;;;8.48;3.03;;;10.80;99.90;;;;;;4951555;28;20695;-76
2023/05/16 03:49:19;;;;;;;9.17;3.10;;;10.60;99.90;;;;;;4953100;28;20272;-76
2023/05/16 03:51:47;;;;;;;10.45;3.83;;;10.50;99.90;;;;;;4952285;28;20667;-76
2023/05/16 03:54:14;;;;;;;10.13;2.80;;;10.70;99.90;;;;;;4952082;28;20658;-76
2023/05/16 03:56:41;;;;;;;6.75;2.60;;;10.60;99.90;;;;;;4953146;28;20190;-75
2023/05/16 03:59:10;;;;;;;9.50;2.83;;;10.80;99.90;;;;;;4985246;28;20240;-75
2023/05/16 04:01:38;;;;;;;12.07;3.67;;;10.80;99.90;;;;;;4968558;28;20205;-79
2023/05/16 04:04:06;;;;;;;13.63;3.87;;;10.70;99.90;;;;;;4971554;28;20205;-78
2023/05/16 04:06:34;;;;;;;8.35;2.88;;;10.80;99.90;;;;;;4981174;28;20222;-78
2023/05/16 04:09:01;;;;;;;7.33;2.90;;;10.70;99.90;;;;;;4986140;28;20591;-78
2023/05/16 04:11:29;;;;;;;11.52;3.20;;;10.80;99.90;;;;;;4955383;28;20660;-79
2023/05/16 04:13:56;;;;;;;9.97;2.70;;;10.70;99.90;;;;;;4953669;28;20206;-78
2023/05/16 04:16:25;;;;;;;10.02;3.25;;;10.70;99.90;;;;;;4970238;28;20201;-75
2023/05/16 04:18:52;;;;;;;8.50;3.00;;;10.50;99.90;;;;;;4951163;28;20265;-78
2023/05/16 04:21:20;;;;;;;7.70;2.75;;;10.40;99.90;;;;;;4984933;28;20221;-78
2023/05/16 04:23:47;;;;;;;13.73;3.07;;;10.40;99.90;;;;;;4956099;28;20204;-78
2023/05/16 04:26:16;;;;;;;8.70;3.13;;;10.60;99.90;;;;;;4969234;28;20210;-78
2023/05/16 04:28:43;;;;;;;9.40;2.97;;;10.50;99.90;;;;;;4971758;28;20202;-77
2023/05/16 04:31:12;;;;;;;8.70;3.07;;;10.50;99.90;;;;;;4955750;28;20676;-78
2023/05/16 04:33:41;;;;;;;7.85;2.90;;;10.60;99.90;;;;;;4958901;28;20715;-78
2023/05/16 04:36:09;;;;;;;9.17;2.50;;;10.60;99.90;;;;;;4954124;28;20206;-77
2023/05/16 04:38:36;;;;;;;7.70;2.77;;;10.50;99.90;;;;;;4956109;28;20205;-77
2023/05/16 04:41:04;;;;;;;9.63;2.80;;;10.60;99.90;;;;;;4955382;28;20203;-78
2023/05/16 04:43:31;;;;;;;7.23;2.50;;;10.40;99.90;;;;;;4958514;28;20236;-78
2023/05/16 04:45:59;;;;;;;10.43;2.57;;;10.40;99.90;;;;;;4969467;28;20198;-76
2023/05/16 04:48:26;;;;;;;10.37;2.67;;;10.50;99.90;;;;;;4956877;28;20571;-78
2023/05/16 04:50:55;;;;;;;14.27;2.85;;;10.50;99.90;;;;;;4955834;28;20221;-78
2023/05/16 04:53:22;;;;;;;9.60;2.50;;;10.60;99.90;;;;;;4953056;28;20194;-78
2023/05/16 04:55:50;;;;;;;11.33;3.80;;;10.70;99.90;;;;;;4952443;28;20568;-78
2023/05/16 04:58:17;;;;;;;10.48;2.72;;;10.70;99.90;;;;;;4984882;28;20205;-79
2023/05/16 05:00:44;;;;;;;10.10;3.20;;;10.60;99.90;;;;;;4953885;28;20232;-79
2023/05/16 05:03:12;;;;;;;10.23;3.00;;;10.50;99.90;;;;;;4966217;28;20201;-80
2023/05/16 05:05:39;;;;;;;8.15;2.53;;;10.60;99.90;;;;;;4970002;28;20628;-79
2023/05/16 05:08:44;;;;;;;9.07;2.50;;;10.50;99.90;;;;;;4957543;28;20221;-80
2023/05/16 05:11:13;;;;;;;8.70;2.80;;;10.50;99.90;;;;;;4883396;28;20210;-80
2023/05/16 05:13:41;;;;;;;8.55;2.90;;;10.30;99.90;;;;;;4970399;28;20205;-79
2023/05/16 05:16:08;;;;;;;7.93;3.03;;;10.40;99.90;;;;;;4970040;28;20209;-79
2023/05/16 05:18:36;;;;;;;8.13;3.33;;;10.50;99.90;;;;;;4972545;28;20193;-78
2023/05/16 05:21:03;;;;;;;10.00;2.90;;;10.70;99.90;;;;;;4961553;28;20212;-80
2023/05/16 05:23:31;;;;;;;10.23;3.35;;;10.60;99.90;;;;;;4980634;28;20216;-80
2023/05/16 05:25:59;;;;;;;7.93;2.87;;;10.50;99.90;;;;;;4956431;28;20209;-79
2023/05/16 05:28:44;;;;;;;7.32;2.83;;;10.50;99.90;;;;;;4973126;28;20244;-80
2023/05/16 05:31:11;;;;;;;9.47;2.70;;;10.50;99.90;;;;;;4983280;28;20206;-79
2023/05/16 05:33:39;;;;;;;6.73;3.07;;;10.40;99.90;;;;;;4971351;28;20209;-79
2023/05/16 05:36:08;;;;;;;10.50;2.77;;;10.50;99.90;;;;;;4964948;28;20209;-79
2023/05/16 05:38:37;;;;;;;13.95;4.28;;;10.50;99.90;;;;;;4954419;28;20198;-79
2023/05/16 05:41:05;;;;;;;10.20;2.43;;;10.50;99.90;;;;;;4957608;28;20197;-79
2023/05/16 05:43:33;;;;;;;11.30;2.93;;;10.50;99.90;;;;;;4969914;28;20205;-79
2023/05/16 05:46:02;;;;;;;7.17;2.63;;;10.50;99.90;;;;;;4954666;28;20213;-81
2023/05/16 05:48:31;;;;;;;11.07;3.53;;;10.60;99.90;;;;;;4942088;28;20222;-80
2023/05/16 05:50:59;;;;;;;9.23;3.40;;;10.70;99.90;;;;;;4951471;28;20200;-79
2023/05/16 05:53:27;;;;;;;9.03;3.00;;;11.10;99.90;;;;;;4954371;28;20201;-80
2023/05/16 05:55:54;;;;;;;9.07;2.80;;;11.00;99.90;;;;;;4981841;28;20205;-80
2023/05/16 05:58:22;;;;;;;11.20;2.63;;;11.00;99.90;;;;;;4970315;28;20205;-80
2023/05/16 06:00:49;;;;;;;9.05;3.00;;;11.20;99.90;;;;;;4964937;28;20233;-79
2023/05/16 06:03:19;;;;;;;13.48;3.33;;;11.10;99.90;;;;;;4975685;28;20679;-79
2023/05/16 06:05:47;;;;;;;8.60;2.50;;;11.00;99.90;;;;;;4958316;29;20570;-80
2023/05/16 06:08:15;;;;;;;6.70;2.22;;;11.30;99.90;;;;;;4960526;28;20237;-79
2023/05/16 06:10:42;;;;;;;10.52;2.92;;;11.10;99.90;;;;;;4971624;28;20719;-80
2023/05/16 06:13:10;;;;;;;9.43;2.70;;;11.00;99.90;;;;;;4994326;28;20202;-80
2023/05/16 06:15:37;;;;;;;12.37;2.67;;;10.90;99.90;;;;;;4962468;28;20198;-77
2023/05/16 06:18:05;;;;;;;11.07;3.07;;;10.90;99.90;;;;;;4960898;28;20194;-80
2023/05/16 06:20:33;;;;;;;9.80;2.67;;;11.00;99.90;;;;;;4975761;28;20233;-80
2023/05/16 06:23:01;;;;;;;9.13;3.30;;;11.20;99.90;;;;;;4968387;28;20200;-80
2023/05/16 06:25:29;;;;;;;7.97;2.50;;;11.30;99.90;;;;;;4966644;28;20209;-80
2023/05/16 06:27:56;;;;;;;10.93;2.65;;;11.20;99.90;;;;;;4990065;28;20240;-80
2023/05/16 06:30:24;;;;;;;7.45;2.00;;;11.40;99.90;;;;;;4960798;29;20232;-80
2023/05/16 06:32:51;;;;;;;9.93;2.90;;;11.30;99.90;;;;;;4969810;28;20209;-80
2023/05/16 06:35:19;;;;;;;6.25;2.40;;;11.40;99.90;;;;;;4960192;29;20198;-80
2023/05/16 06:37:47;;;;;;;8.02;2.60;;;11.20;99.90;;;;;;4991766;28;20204;-80
2023/05/16 06:40:15;;;;;;;3.38;1.83;;;11.30;99.90;;;;;;4991862;28;20228;-80
2023/05/16 06:42:42;;;;;;;6.60;2.30;;;11.50;99.90;;;;;;4961406;29;20190;-80
2023/05/16 06:45:12;;;;;;;9.20;2.67;;;11.60;99.90;;;;;;4958013;28;20207;-80
2023/05/16 06:47:40;;;;;;;8.45;1.88;;;11.40;99.90;;;;;;4987657;28;20229;-80
2023/05/16 06:50:10;;;;;;;5.53;1.98;;;11.40;99.90;;;;;;4970417;28;20590;-81
2023/05/16 06:52:37;;;;;;;8.32;1.95;;;11.60;99.90;;;;;;4991834;28;20208;-80
2023/05/16 06:55:06;;;;;;;9.48;2.10;;;11.50;99.90;;;;;;4969883;28;20209;-80
2023/05/16 06:57:34;;;;;;;4.10;1.50;;;11.40;99.90;;;;;;4960806;28;20229;-80
2023/05/16 07:00:04;;;;;;;8.10;1.95;;;11.30;99.90;;;;;;4970670;28;20234;-80
2023/05/16 07:02:31;;;;;;;9.98;2.13;;;11.40;99.90;;;;;;4983301;28;20206;-80
2023/05/16 07:04:59;;;;;;;6.68;2.25;;;11.30;99.90;;;;;;4957363;28;20209;-80
2023/05/16 07:07:26;;;;;;;4.13;1.75;;;11.40;99.90;;;;;;4953786;28;20201;-80
2023/05/16 07:09:53;;;;;;;8.07;2.15;;;11.50;99.90;;;;;;4955692;28;20220;-80
2023/05/16 07:12:22;;;;;;;7.90;1.92;;;11.60;99.90;;;;;;4952408;28;20216;-80
2023/05/16 07:14:50;;;;;;;7.07;1.85;;;11.80;99.90;;;;;;4953730;28;20213;-79
2023/05/16 07:17:17;;;;;;;11.05;2.63;;;12.10;99.90;;;;;;4967821;28;20202;-79
2023/05/16 07:19:44;;;;;;;7.03;2.00;;;12.20;99.90;;;;;;4956164;28;20218;-76
2023/05/16 07:22:12;;;;;;;8.35;1.95;;;12.20;99.90;;;;;;4982147;28;20216;-79
2023/05/16 07:24:39;;;;;;;7.53;2.22;;;11.90;99.90;;;;;;4984827;28;20299;-77
2023/05/16 07:27:08;;;;;;;6.22;1.77;;;12.00;99.90;;;;;;4949481;28;20198;-76
2023/05/16 07:29:38;;;;;;;7.78;2.20;;;11.90;99.90;;;;;;4969470;28;20228;-80
2023/05/16 07:32:06;;;;;;;7.07;1.90;;;12.10;99.90;;;;;;4957873;28;20190;-78
2023/05/16 07:34:34;;;;;;;6.13;2.05;;;12.30;99.90;;;;;;4964493;28;20213;-79
2023/05/16 07:37:01;;;;;;;4.75;1.60;;;12.20;99.90;;;;;;4958102;28;20557;-77
2023/05/16 07:39:28;;;;;;;7.57;2.30;;;12.30;99.90;;;;;;4955887;28;20218;-79
2023/05/16 07:41:57;;;;;;;6.05;1.90;;;12.40;99.90;;;;;;4971351;28;20213;-79
2023/05/16 07:44:24;;;;;;;7.57;3.28;;;12.30;99.90;;;;;;4955230;28;20208;-79
2023/05/16 07:46:53;;;;;;;3.88;1.60;;;13.00;99.90;;;;;;4950956;28;20202;-77
2023/05/16 07:49:21;;;;;;;4.00;1.40;;;13.40;99.90;;;;;;4950039;28;20237;-80
2023/05/16 07:51:48;;;;;;;5.05;2.08;;;12.60;99.30;;;;;;4955202;28;20190;-80
2023/05/16 07:54:15;;;;;;;7.30;2.00;;;12.30;99.90;;;;;;4967821;28;20209;-79
2023/05/16 07:56:43;;;;;;;7.07;1.75;;;12.40;99.90;;;;;;4954662;28;20216;-79
2023/05/16 07:59:11;;;;;;;4.95;1.63;;;12.20;99.80;;;;;;4953894;28;20237;-77
2023/05/16 08:01:38;;;;;;;5.40;1.42;;;12.40;99.90;;;;;;4967957;28;20206;-79
2023/05/16 08:04:07;;;;;;;6.55;1.20;;;12.30;99.90;;;;;;4954215;28;20205;-79
2023/05/16 08:06:35;;;;;;;5.95;1.52;;;12.20;99.70;;;;;;4952836;28;20202;-79
2023/05/16 08:09:03;;;;;;;6.22;1.70;;;12.60;99.90;;;;;;4957103;28;20217;-77
2023/05/16 08:11:30;;;;;;;4.57;1.33;;;12.70;99.90;;;;;;4962202;28;20338;-77
2023/05/16 08:13:58;;;;;;;5.30;1.65;;;12.40;97.60;;;;;;4988147;28;20209;-79
2023/05/16 08:16:25;;;;;;;4.82;1.80;;;12.50;97.20;;;;;;4954687;28;20683;-79
2023/05/16 08:18:53;;;;;;;4.78;1.08;;;12.40;97.40;;;;;;4955272;28;20228;-78
2023/05/16 08:21:22;;;;;;;3.65;1.33;;;12.40;96.00;;;;;;4954433;28;20207;-78
2023/05/16 08:23:49;;;;;;;5.97;1.65;;;12.50;96.70;;;;;;4970006;28;20247;-77
2023/05/16 08:26:17;;;;;;;4.75;1.48;;;12.80;97.20;;;;;;4959197;28;20189;-77
2023/05/16 08:28:45;;;;;;;3.28;1.27;;;12.90;96.20;;;;;;4958520;28;20210;-78
2023/05/16 08:31:18;;;;;;;2.75;1.00;;;12.80;95.80;;;;;;4954747;28;20200;-79
2023/05/16 08:33:45;;;;;;;3.30;1.45;;;12.50;96.40;;;;;;4956491;28;20212;-80
2023/05/16 08:36:14;;;;;;;3.70;1.20;;;12.30;95.60;;;;;;4954310;28;20672;-80
2023/05/16 08:38:43;;;;;;;3.08;1.40;;;12.00;97.40;;;;;;4965262;28;20209;-80
2023/05/16 08:41:10;;;;;;;7.32;1.50;;;12.20;97.80;;;;;;4978468;28;20198;-78
2023/05/16 08:43:38;;;;;;;6.80;1.92;;;12.30;98.90;;;;;;4956525;28;20204;-78
2023/05/16 08:46:07;;;;;;;4.88;1.48;;;12.70;99.90;;;;;;4948849;28;20205;-79
2023/05/16 08:48:36;;;;;;;3.58;1.20;;;12.90;96.30;;;;;;4983795;28;20217;-78
2023/05/16 08:51:07;;;;;;;5.40;1.65;;;13.00;95.80;;;;;;4956962;28;20291;-78
2023/05/16 08:53:41;;;;;;;3.60;1.35;;;13.00;95.50;;;;;;4962690;28;20525;-78
2023/05/16 08:56:10;;;;;;;4.82;1.67;;;12.90;93.40;;;;;;4954549;28;20197;-78
2023/05/16 08:58:39;;;;;;;3.63;1.27;;;13.00;93.70;;;;;;4948965;28;20664;-77
2023/05/16 09:01:08;;;;;;;4.68;1.52;;;12.90;93.60;;;;;;4953616;29;20202;-78
2023/05/16 09:03:36;;;;;;;3.83;1.40;;;13.00;93.60;;;;;;4986483;28;20567;-78
2023/05/16 09:06:05;;;;;;;5.45;1.20;;;13.00;93.60;;;;;;4955738;29;20282;-78
2023/05/16 09:08:33;;;;;;;3.67;1.30;;;13.20;93.70;;;;;;4972728;28;20222;-78
2023/05/16 09:11:01;;;;;;;3.58;1.13;;;13.10;92.20;;;;;;4969404;28;20198;-78
2023/05/16 09:13:30;;;;;;;4.80;1.27;;;13.30;92.90;;;;;;4970699;28;20205;-77
2023/05/16 09:16:11;;;;;;;2.45;1.20;;;13.40;92.60;;;;;;4954751;28;20201;-78
2023/05/16 09:18:39;;;;;;;3.63;1.10;;;13.50;92.50;;;;;;4959039;28;20201;-78
2023/05/16 09:21:07;;;;;;;6.13;1.63;;;13.80;93.00;;;;;;4965303;28;20660;-76
2023/05/16 09:23:35;;;;;;;5.25;1.40;;;14.30;96.10;;;;;;4965331;28;20197;-77
2023/05/16 09:26:03;;;;;;;4.65;1.48;;;14.60;95.80;;;;;;4951895;28;20217;-77
2023/05/16 09:28:32;;;;;;;3.28;1.42;;;15.30;99.00;;;;;;4961166;28;20200;-76
2023/05/16 09:31:01;;;;;;;3.22;1.40;;;15.40;94.90;;;;;;4945283;28;20696;-77
2023/05/16 09:33:28;;;;;;;2.33;0.70;;;15.50;95.40;;;;;;4949648;28;20202;-79
2023/05/16 09:35:58;;;;;;;2.38;1.50;;;14.90;90.50;;;;;;4966414;28;20208;-78
2023/05/16 09:38:26;;;;;;;3.78;1.40;;;14.60;91.60;;;;;;4941523;28;20198;-78
2023/05/16 09:41:03;;;;;;;4.30;1.20;;;14.20;90.80;;;;;;4963498;28;20214;-79
2023/05/16 09:43:32;;;;;;;5.10;1.88;;;13.90;91.30;;;;;;4948594;28;20670;-79
2023/05/16 09:45:59;;;;;;;3.92;1.40;;;13.70;91.90;;;;;;4966204;28;20194;-78
2023/05/16 09:48:27;;;;;;;3.67;1.58;;;13.80;92.60;;;;;;4951616;28;20238;-79
2023/05/16 09:50:58;;;;;;;3.78;1.25;;;13.70;93.30;;;;;;4950455;28;20218;-78
2023/05/16 09:53:27;;;;;;;3.67;1.15;;;13.50;92.20;;;;;;4945733;29;20213;-79
2023/05/16 09:56:04;;;;;;;1.88;1.08;;;13.30;91.80;;;;;;4954283;28;20574;-79
2023/05/16 09:58:34;;;;;;;3.58;1.17;;;13.30;92.70;;;;;;4954763;28;20209;-77
2023/05/16 10:01:02;;;;;;;3.72;1.08;;;13.60;92.60;;;;;;4989200;28;20214;-78
2023/05/16 10:03:30;;;;;;;5.47;1.35;;;13.70;92.00;;;;;;4959327;28;20220;-78
2023/05/16 10:05:58;;;;;;;3.67;1.25;;;13.80;92.10;;;;;;4988088;28;20209;-79
2023/05/16 10:08:26;;;;;;;3.28;1.40;;;13.90;91.90;;;;;;4954560;28;20208;-79
2023/05/16 10:10:55;;;;;;;4.30;1.20;;;13.80;92.10;;;;;;4988423;28;20230;-78
2023/05/16 10:13:28;;;;;;;4.80;1.20;;;13.90;92.30;;;;;;4951589;28;20201;-78
2023/05/16 10:15:58;;;;;;;4.25;1.48;;;13.50;91.60;;;;;;4993272;28;20208;-75
2023/05/16 10:18:43;;;;;;;4.72;1.15;;;13.40;92.40;;;;;;4961455;28;20797;-76
2023/05/16 10:21:32;;;;;;;5.55;1.52;;;13.40;92.70;;;;;;4986459;28;20205;-78
2023/05/16 10:24:06;;;;;;;3.70;1.83;;;13.40;93.00;;;;;;4960528;28;20640;-78
2023/05/16 10:26:34;;;;;;;4.88;1.30;;;13.80;93.20;;;;;;4955674;28;20197;-79
2023/05/16 10:29:02;;;;;;;4.20;0.90;;;13.80;92.00;;;;;;4995965;28;20225;-78
2023/05/16 10:31:32;;;;;;;3.33;1.00;;;13.80;91.80;;;;;;4956162;28;20194;-78
2023/05/16 10:34:00;;;;;;;3.42;1.08;;;13.80;91.20;;;;;;4987393;28;20201;-81
2023/05/16 10:36:28;;;;;;;3.83;1.23;;;14.60;96.30;;;;;;4955423;28;20198;-79
2023/05/16 10:38:56;;;;;;;4.25;1.45;;;14.80;91.40;;;;;;4968133;28;20226;-80
2023/05/16 10:41:24;;;;;;;4.72;1.17;;;14.70;91.70;;;;;;4966845;28;20464;-81
2023/05/16 10:44:01;;;;;;;4.22;1.10;;;14.70;91.40;;;;;;4967636;28;20556;-80
2023/05/16 10:46:28;;;;;;;5.97;1.48;;;14.50;91.20;;;;;;4962097;28;20686;-80
2023/05/16 10:48:57;;;;;;;3.78;1.20;;;14.70;91.90;;;;;;4984041;28;20224;-80
2023/05/16 10:51:36;;;;;;;3.78;1.05;;;14.90;91.40;;;;;;4970438;28;20217;-80
2023/05/16 10:54:09;;;;;;;4.55;1.38;;;14.80;91.80;;;;;;4970353;28;20202;-80
2023/05/16 10:56:37;;;;;;;3.60;0.98;;;15.00;91.40;;;;;;4955304;29;20217;-80
2023/05/16 10:59:05;;;;;;;4.22;0.85;;;14.80;91.10;;;;;;4964656;28;20228;-79
2023/05/16 11:01:34;;;;;;;6.05;1.38;;;14.90;91.70;;;;;;4952471;28;20582;-77
2023/05/16 11:04:11;;;;;;;1.85;1.27;;;15.00;91.80;;;;;;4958189;28;20197;-77
2023/05/16 11:06:50;;;;;;;5.95;1.40;;;15.00;91.10;;;;;;4956279;28;20200;-78
2023/05/16 11:09:26;;;;;;;3.45;1.38;;;14.80;92.40;;;;;;4955956;28;20229;-78
2023/05/16 11:11:57;;;;;;;6.28;1.15;;;14.80;92.50;;;;;;4956023;28;20198;-78
2023/05/16 11:14:26;;;;;;;3.28;1.20;;;14.60;92.00;;;;;;4979337;28;20209;-78
2023/05/16 11:17:00;;;;;;;4.80;1.15;;;14.60;92.00;;;;;;4985335;28;20202;-78
2023/05/16 11:19:34;;;;;;;2.72;1.08;;;14.70;91.00;;;;;;4948734;28;20216;-78
2023/05/16 11:22:23;;;;;;;3.15;1.13;;;14.90;91.00;;;;;;4954944;28;20189;-78
2023/05/16 11:24:52;;;;;;;3.42;1.48;;;15.20;91.40;;;;;;4954850;28;20194;-78
2023/05/16 11:27:27;;;;;;;4.30;1.23;;;15.40;91.00;;;;;;4955358;28;20194;-77
2023/05/16 11:29:58;;;;;;;4.25;1.05;;;15.20;90.70;;;;;;4964018;28;20228;-78
2023/05/16 11:32:26;;;;;;;3.05;1.10;;;15.20;90.70;;;;;;4987712;28;20683;-78
2023/05/16 11:34:55;;;;;;;3.00;1.20;;;15.10;90.90;;;;;;4955089;28;20206;-78
2023/05/16 11:37:24;;;;;;;5.90;1.40;;;15.00;91.50;;;;;;4970141;28;20676;-78
2023/05/16 11:39:52;;;;;;;4.68;1.17;;;14.60;92.30;;;;;;4980450;28;20218;-78
2023/05/16 11:42:23;;;;;;;3.88;1.45;;;14.60;93.30;;;;;;4970268;28;20209;-78
2023/05/16 11:44:50;;;;;;;3.72;1.23;;;14.30;93.60;;;;;;4955425;28;20204;-77
2023/05/16 11:47:18;;;;;;;4.88;1.25;;;14.10;94.10;;;;;;4969643;28;20202;-78
2023/05/16 11:49:46;;;;;;;1.58;0.70;;;14.10;95.40;;;;;;4955867;28;20269;-77
2023/05/16 11:52:15;;;;;;;5.78;1.13;;;14.50;95.90;;;;;;4957402;28;20189;-77
2023/05/16 11:54:42;;;;;;;4.38;1.60;;;14.60;95.30;;;;;;4952444;28;20190;-77
2023/05/16 11:57:10;;;;;;;3.35;1.00;;;14.90;95.50;;;;;;4956235;28;20197;-78
2023/05/16 11:59:38;;;;;;;2.15;1.20;;;14.80;95.10;;;;;;4954574;28;20229;-78
2023/05/16 12:02:08;;;;;;;4.32;1.10;;;14.80;92.00;;;;;;4979177;28;20206;-78
2023/05/16 12:04:37;;;;;;;2.03;0.80;;;15.30;93.10;;;;;;4966980;28;20591;-78
2023/05/16 12:07:04;;;;;;;3.65;1.35;;;15.30;90.10;;;;;;4956855;28;20205;-78
2023/05/16 12:09:36;;;;;;;2.33;1.00;;;15.40;90.50;;;;;;4962321;28;20213;-77
2023/05/16 12:12:06;;;;;;;2.83;1.27;;;15.50;89.90;;;;;;4955837;28;20218;-78
2023/05/16 12:14:33;;;;;;;3.28;1.10;;;15.70;90.10;;;;;;4970931;28;20221;-78
2023/05/16 12:17:03;;;;;;;1.58;0.70;;;16.10;89.90;;;;;;4983701;28;20197;-78
2023/05/16 12:19:30;;;;;;;3.30;1.15;;;16.20;92.50;;;;;;4957218;28;20228;-78
2023/05/16 12:21:58;;;;;;;1.88;0.93;;;16.50;91.30;;;;;;4956687;28;20209;-77
2023/05/16 12:24:30;;;;;;;3.00;1.05;;;15.80;84.30;;;;;;4952868;28;20668;-75
2023/05/16 12:26:59;;;;;;;3.78;1.00;;;15.40;86.00;;;;;;4984109;28;20205;-77
2023/05/16 12:29:27;;;;;;;1.77;1.10;;;15.00;87.90;;;;;;4951151;28;20230;-77
2023/05/16 12:31:54;;;;;;;3.40;1.13;;;14.90;88.80;;;;;;4971601;28;20578;-77
2023/05/16 12:34:22;;;;;;;3.35;1.02;;;14.70;88.60;;;;;;4953420;28;20205;-77
2023/05/16 12:36:52;;;;;;;3.15;1.10;;;14.60;90.00;;;;;;4954138;29;20201;-77
2023/05/16 12:39:20;;;;;;;4.13;1.90;;;14.70;90.30;;;;;;4970203;28;20565;-77
2023/05/16 12:41:47;;;;;;;1.92;0.98;;;15.10;91.00;;;;;;4954132;28;20201;-77
2023/05/16 12:44:18;;;;;;;3.28;1.00;;;15.80;90.10;;;;;;4955146;28;20202;-77
2023/05/16 12:46:47;;;;;;;4.93;0.73;;;16.10;87.70;;;;;;4954828;28;20209;-77
2023/05/16 12:49:14;;;;;;;5.03;1.17;;;16.10;86.50;;;;;;4969564;28;20221;-77
2023/05/16 12:51:49;;;;;;;2.83;0.93;;;16.70;86.40;;;;;;4953609;29;20217;-77
2023/05/16 12:54:17;;;;;;;4.40;1.05;;;16.40;84.80;;;;;;4954416;29;20208;-77